createdAt,value
2023-03-19T00:02:16.629Z,1.20
2023-03-19T00:07:21.886Z,1.10
2023-03-19T00:12:25.021Z,1.13
2023-03-19T00:17:28.119Z,0.90
2023-03-19T00:22:32.629Z,1.20
2023-03-19T00:27:36.222Z,1.08
2023-03-19T00:32:39.562Z,1.17
2023-03-19T00:37:44.099Z,2.22
2023-03-19T00:42:47.260Z,1.67
2023-03-19T00:47:50.405Z,1.60
2023-03-19T00:52:54.889Z,1.85
2023-03-19T00:57:58.000Z,1.90
2023-03-19T01:03:01.482Z,1.30
2023-03-19T01:08:07.412Z,1.65
2023-03-19T01:13:10.506Z,1.70
2023-03-19T01:18:13.739Z,1.40
2023-03-19T01:23:18.318Z,1.55
2023-03-19T01:28:22.340Z,1.33
2023-03-19T01:33:25.812Z,1.63
2023-03-19T01:38:38.839Z,1.52
2023-03-19T01:43:46.958Z,1.70
2023-03-19T01:49:12.320Z,1.50
2023-03-19T01:54:20.654Z,2.00
2023-03-19T01:59:31.892Z,2.08
2023-03-19T02:04:54.820Z,2.00
2023-03-19T02:10:00.632Z,1.90
2023-03-19T02:15:05.157Z,2.03
2023-03-19T02:20:09.792Z,2.13
2023-03-19T02:25:16.506Z,2.28
2023-03-19T02:30:25.252Z,2.50
2023-03-19T02:35:32.696Z,2.70
2023-03-19T02:40:37.996Z,2.25
2023-03-19T02:45:42.901Z,2.38
2023-03-19T02:50:46.246Z,2.70
2023-03-19T02:55:49.346Z,2.60
2023-03-19T03:00:53.854Z,2.88
2023-03-19T03:05:57.097Z,2.42
2023-03-19T03:11:00.147Z,2.88
2023-03-19T03:16:04.681Z,2.90
2023-03-19T03:21:08.190Z,3.30
2023-03-19T03:26:11.297Z,3.67
2023-03-19T03:31:15.837Z,3.38
2023-03-19T03:36:19.107Z,3.88
2023-03-19T03:41:22.383Z,3.53
2023-03-19T03:46:27.432Z,3.78
2023-03-19T03:51:30.638Z,3.72
2023-03-19T03:56:34.348Z,4.05
2023-03-19T04:01:38.993Z,4.15
2023-03-19T04:06:42.249Z,3.85
2023-03-19T04:11:53.521Z,4.53
2023-03-19T04:16:58.014Z,3.95
2023-03-19T04:22:03.471Z,4.80
2023-03-19T04:27:08.428Z,5.28
2023-03-19T04:32:15.317Z,4.63
2023-03-19T04:37:18.829Z,5.05
2023-03-19T04:42:26.309Z,5.55
2023-03-19T04:47:53.977Z,5.38
2023-03-19T04:52:57.615Z,6.50
2023-03-19T04:58:02.045Z,7.70
2023-03-19T05:03:09.544Z,8.57
2023-03-19T05:08:13.767Z,9.13
2023-03-19T05:13:19.285Z,9.18
2023-03-19T05:18:29.301Z,10.40
2023-03-19T05:23:32.773Z,10.07
2023-03-19T05:28:43.828Z,10.55
2023-03-19T05:33:49.713Z,12.00
2023-03-19T05:38:53.407Z,12.45
2023-03-19T05:44:04.978Z,12.70
2023-03-19T05:49:28.188Z,12.25
2023-03-19T05:54:31.386Z,11.80
2023-03-19T05:59:43.517Z,11.90
2023-03-19T06:05:13.973Z,12.23
2023-03-19T06:10:17.630Z,13.77
2023-03-19T06:15:22.895Z,14.30
2023-03-19T06:20:30.498Z,14.57
2023-03-19T06:25:33.891Z,13.85
2023-03-19T06:30:37.019Z,14.20
2023-03-19T06:35:47.203Z,13.52
2023-03-19T06:40:50.454Z,11.95
2023-03-19T06:45:53.612Z,12.40
2023-03-19T06:50:58.234Z,11.32
2023-03-19T06:56:01.436Z,11.75
2023-03-19T07:01:05.015Z,10.65
2023-03-19T07:06:09.620Z,10.57
2023-03-19T07:11:13.344Z,10.38
2023-03-19T07:16:16.506Z,9.43
2023-03-19T07:21:20.940Z,9.18
2023-03-19T07:26:24.073Z,8.15
2023-03-19T07:31:27.208Z,8.85
2023-03-19T07:36:31.816Z,9.65
2023-03-19T07:41:35.006Z,9.30
2023-03-19T07:46:38.136Z,9.57
2023-03-19T07:51:42.592Z,9.57
2023-03-19T07:56:46.060Z,10.10
2023-03-19T08:01:49.212Z,10.30
2023-03-19T08:06:53.744Z,10.05
2023-03-19T08:11:56.953Z,10.52
2023-03-19T08:17:00.232Z,9.38
2023-03-19T08:22:04.800Z,8.82
2023-03-19T08:27:08.203Z,8.45
2023-03-19T08:32:11.428Z,7.57
2023-03-19T08:37:15.985Z,7.65
2023-03-19T08:42:19.169Z,7.22
2023-03-19T08:47:24.405Z,8.65
2023-03-19T08:52:28.916Z,7.28
2023-03-19T08:57:32.167Z,7.07
2023-03-19T09:02:35.386Z,6.55
2023-03-19T09:07:39.877Z,7.30
2023-03-19T09:12:43.088Z,7.00
2023-03-19T09:17:46.212Z,8.27
2023-03-19T09:22:50.782Z,9.85
2023-03-19T09:27:53.903Z,10.10
2023-03-19T09:32:57.067Z,10.73
2023-03-19T09:38:02.780Z,11.88
2023-03-19T09:43:11.287Z,13.27
2023-03-19T09:48:18.149Z,13.95
2023-03-19T09:53:29.725Z,14.68
2023-03-19T09:58:34.498Z,13.70
2023-03-19T10:03:44.985Z,15.40
2023-03-19T10:08:56.770Z,16.80
2023-03-19T10:14:03.549Z,15.15
2023-03-19T10:19:06.860Z,22.88
2023-03-19T10:24:13.556Z,17.67
2023-03-19T10:29:19.407Z,16.42
2023-03-19T10:34:26.016Z,15.98
2023-03-19T10:39:30.842Z,17.58
2023-03-19T10:44:36.117Z,17.65
2023-03-19T10:49:39.322Z,16.58
2023-03-19T10:54:44.942Z,14.00
2023-03-19T10:59:48.285Z,18.75
2023-03-19T11:05:06.721Z,14.70
2023-03-19T11:10:15.668Z,16.40
2023-03-19T11:15:21.271Z,12.30
2023-03-19T11:20:27.821Z,15.68
2023-03-19T11:25:35.620Z,16.33
2023-03-19T11:30:41.107Z,17.63
2023-03-19T11:35:50.447Z,14.40
2023-03-19T11:40:57.814Z,14.43
2023-03-19T11:46:07.359Z,16.30
2023-03-19T11:51:12.365Z,14.80
2023-03-19T11:56:20.081Z,17.17
2023-03-19T12:01:31.515Z,15.82
2023-03-19T12:06:40.642Z,19.45
2023-03-19T12:11:50.450Z,17.80
2023-03-19T12:17:04.337Z,17.63
2023-03-19T12:22:13.491Z,16.00
2023-03-19T12:27:23.091Z,15.75
2023-03-19T12:32:37.986Z,16.10
2023-03-19T12:37:43.630Z,14.68
2023-03-19T12:42:48.222Z,14.45
2023-03-19T12:47:51.689Z,14.32
2023-03-19T12:52:58.269Z,15.20
2023-03-19T12:58:05.044Z,14.65
2023-03-19T13:03:10.542Z,15.70
2023-03-19T13:08:16.966Z,14.85
2023-03-19T13:13:28.408Z,13.55
2023-03-19T13:18:38.275Z,12.48
2023-03-19T13:23:42.995Z,14.02
2023-03-19T13:29:00.390Z,11.85
2023-03-19T13:34:04.803Z,13.80
2023-03-19T13:39:13.657Z,14.70
2023-03-19T13:44:25.777Z,13.27
2023-03-19T13:49:29.768Z,13.85
2023-03-19T13:54:34.610Z,12.73
2023-03-19T13:59:39.677Z,10.40
2023-03-19T14:04:50.822Z,11.30
2023-03-19T14:10:05.435Z,10.35
2023-03-19T14:15:18.434Z,10.18
2023-03-19T14:20:28.390Z,9.68
2023-03-19T14:26:07.253Z,9.20
2023-03-19T14:31:19.925Z,9.93
2023-03-19T14:36:24.145Z,9.20
2023-03-19T14:41:28.575Z,9.65
2023-03-19T14:46:38.180Z,10.65
2023-03-19T14:51:49.833Z,10.27
2023-03-19T14:56:52.949Z,10.02
2023-03-19T15:01:58.280Z,11.07
2023-03-19T15:07:02.120Z,12.85
2023-03-19T15:12:31.442Z,14.50
2023-03-19T15:17:38.759Z,12.82
2023-03-19T15:22:42.106Z,14.07
2023-03-19T15:27:45.373Z,13.70
2023-03-19T15:33:04.332Z,13.23
2023-03-19T15:38:11.298Z,13.02
2023-03-19T15:43:14.600Z,12.82
2023-03-19T15:48:21.641Z,13.35
2023-03-19T15:53:26.157Z,11.93
2023-03-19T15:58:30.840Z,11.50
2023-03-19T16:03:38.892Z,12.60
2023-03-19T16:08:47.124Z,11.02
2023-03-19T16:13:55.636Z,11.13
2023-03-19T16:19:00.521Z,11.18
2023-03-19T16:24:05.041Z,11.50
2023-03-19T16:29:17.318Z,12.18
2023-03-19T16:34:32.290Z,11.38
2023-03-19T16:39:36.042Z,10.88
2023-03-19T16:44:40.680Z,10.15
2023-03-19T16:49:47.052Z,9.40
2023-03-19T16:54:50.506Z,9.55
2023-03-19T16:59:53.846Z,10.13
2023-03-19T17:04:58.286Z,11.32
2023-03-19T17:10:01.459Z,10.93
2023-03-19T17:15:04.921Z,11.65
2023-03-19T17:20:15.247Z,12.80
2023-03-19T17:25:19.213Z,8.97
2023-03-19T17:30:22.497Z,14.65
2023-03-19T17:35:27.300Z,15.20
2023-03-19T17:40:30.405Z,13.10
2023-03-19T17:45:33.790Z,12.90
2023-03-19T17:50:38.356Z,11.60
2023-03-19T17:55:41.491Z,12.05
2023-03-19T18:00:44.681Z,12.30
2023-03-19T18:05:50.586Z,12.68
2023-03-19T18:10:53.712Z,13.02
2023-03-19T18:15:57.917Z,15.55
2023-03-19T18:21:02.429Z,17.17
2023-03-19T18:26:05.737Z,19.65
2023-03-19T18:31:12.639Z,21.30
2023-03-19T18:36:19.346Z,21.55
2023-03-19T18:41:23.409Z,21.20
2023-03-19T18:46:39.833Z,22.08
2023-03-19T18:52:00.587Z,23.02
2023-03-19T18:57:05.777Z,21.52
2023-03-19T19:02:22.727Z,21.80
2023-03-19T19:07:27.244Z,21.52
2023-03-19T19:12:30.398Z,21.42
2023-03-19T19:17:35.206Z,20.67
2023-03-19T19:22:39.802Z,19.55
2023-03-19T19:27:43.256Z,19.60
2023-03-19T19:32:47.267Z,23.90
2023-03-19T19:37:51.843Z,19.05
2023-03-19T19:42:55.211Z,20.70
2023-03-19T19:47:58.393Z,19.90
2023-03-19T19:53:03.341Z,21.20
2023-03-19T19:58:08.666Z,21.38
2023-03-19T20:03:19.449Z,25.80
2023-03-19T20:08:23.931Z,19.52
2023-03-19T20:13:28.312Z,17.02
2023-03-19T20:18:35.572Z,15.43
2023-03-19T20:23:40.639Z,14.80
2023-03-19T20:28:44.818Z,14.30
2023-03-19T20:33:47.971Z,13.43
2023-03-19T20:38:52.602Z,14.05
2023-03-19T20:43:56.019Z,14.05
2023-03-19T20:49:00.340Z,12.30
2023-03-19T20:54:05.478Z,13.05
2023-03-19T20:59:10.953Z,13.27
2023-03-19T21:04:18.889Z,14.88
2023-03-19T21:09:24.037Z,15.32
2023-03-19T21:14:27.682Z,15.75
2023-03-19T21:19:30.813Z,16.25
2023-03-19T21:24:35.300Z,16.58
2023-03-19T21:29:38.997Z,15.38
2023-03-19T21:34:42.127Z,16.27
2023-03-19T21:39:47.582Z,16.42
2023-03-19T21:44:52.298Z,17.27
2023-03-19T21:49:55.460Z,16.73
2023-03-19T21:55:00.015Z,16.65
2023-03-19T22:00:04.290Z,16.63
2023-03-19T22:05:16.010Z,12.75
2023-03-19T22:10:21.389Z,12.85
2023-03-19T22:15:27.401Z,12.85
2023-03-19T22:20:30.567Z,11.27
2023-03-19T22:25:39.288Z,10.15
2023-03-19T22:30:44.021Z,10.00
2023-03-19T22:35:49.421Z,9.75
2023-03-19T22:40:54.873Z,10.20
2023-03-19T22:45:59.662Z,9.98
2023-03-19T22:51:03.130Z,13.15
2023-03-19T22:56:08.081Z,16.55
2023-03-19T23:01:28.939Z,15.90
2023-03-19T23:06:32.125Z,18.38
2023-03-19T23:11:39.406Z,16.27
2023-03-19T23:16:43.489Z,15.50
2023-03-19T23:21:46.551Z,13.93
2023-03-19T23:26:51.676Z,14.85
2023-03-19T23:31:55.148Z,14.55
2023-03-19T23:36:59.959Z,14.82
2023-03-19T23:42:04.490Z,13.95
2023-03-19T23:47:07.690Z,12.85
2023-03-19T23:52:13.835Z,13.40
2023-03-19T23:57:18.298Z,13.45
